createdAt,value
2022-09-09T00:02:02.870Z,12.40
2022-09-09T00:04:33.334Z,12.50
2022-09-09T00:07:49.542Z,12.40
2022-09-09T00:10:40.404Z,12.40
2022-09-09T00:13:34.263Z,12.30
2022-09-09T00:16:10.623Z,12.30
2022-09-09T00:19:02.169Z,12.20
2022-09-09T00:21:39.648Z,12.30
2022-09-09T00:24:27.717Z,12.20
2022-09-09T00:27:02.595Z,12.20
2022-09-09T00:30:13.178Z,12.20
2022-09-09T00:32:40.259Z,12.20
2022-09-09T00:35:26.118Z,12.20
2022-09-09T00:37:59.160Z,12.20
2022-09-09T00:40:32.862Z,12.20
2022-09-09T00:43:32.373Z,12.20
2022-09-09T00:46:19.142Z,12.20
2022-09-09T00:49:16.494Z,12.20
2022-09-09T00:52:09.007Z,12.10
2022-09-09T00:55:02.880Z,12.00
2022-09-09T00:57:33.378Z,11.90
2022-09-09T01:00:26.325Z,11.80
2022-09-09T01:03:37.423Z,11.80
2022-09-09T01:06:35.025Z,11.90
2022-09-09T01:09:39.215Z,11.90
2022-09-09T01:12:13.280Z,11.80
2022-09-09T01:14:53.095Z,11.80
2022-09-09T01:17:32.226Z,11.80
2022-09-09T01:20:11.667Z,11.80
2022-09-09T01:23:28.083Z,11.80
2022-09-09T01:26:20.545Z,11.90
2022-09-09T01:28:50.651Z,12.00
2022-09-09T01:31:53.282Z,11.90
2022-09-09T01:34:21.597Z,11.90
2022-09-09T01:37:01.434Z,11.90
2022-09-09T01:39:28.580Z,11.80
2022-09-09T01:41:56.994Z,11.80
2022-09-09T01:44:25.519Z,11.80
2022-09-09T01:46:52.430Z,11.80
2022-09-09T01:49:19.850Z,11.80
2022-09-09T01:51:53.421Z,11.90
2022-09-09T01:54:23.137Z,11.90
2022-09-09T01:57:17.129Z,11.90
2022-09-09T02:00:09.059Z,11.90
2022-09-09T02:03:02.054Z,11.80
2022-09-09T02:05:38.796Z,11.90
2022-09-09T02:08:14.024Z,11.80
2022-09-09T02:10:49.116Z,11.90
2022-09-09T02:13:19.814Z,11.90
2022-09-09T02:16:05.730Z,11.90
2022-09-09T02:18:52.486Z,11.90
2022-09-09T02:21:19.763Z,11.90
2022-09-09T02:23:48.762Z,11.90
2022-09-09T02:26:21.202Z,11.90
2022-09-09T02:28:50.598Z,11.90
2022-09-09T02:31:23.370Z,11.90
2022-09-09T02:33:57.175Z,11.90
2022-09-09T02:36:27.884Z,12.00
2022-09-09T02:38:55.398Z,12.00
2022-09-09T02:41:28.811Z,12.00
2022-09-09T02:43:55.591Z,12.00
2022-09-09T02:46:39.445Z,12.00
2022-09-09T02:49:44.760Z,12.10
2022-09-09T02:52:17.209Z,12.10
2022-09-09T02:54:44.477Z,12.10
2022-09-09T02:57:22.611Z,12.10
2022-09-09T02:59:50.933Z,12.00
2022-09-09T03:02:17.763Z,12.10
2022-09-09T03:04:45.426Z,11.90
2022-09-09T03:07:13.079Z,11.80
2022-09-09T03:09:39.850Z,11.80
2022-09-09T03:12:08.016Z,11.80
2022-09-09T03:14:34.753Z,11.70
2022-09-09T03:17:03.263Z,11.70
2022-09-09T03:19:30.899Z,11.70
2022-09-09T03:21:59.074Z,11.70
2022-09-09T03:24:26.578Z,11.70
2022-09-09T03:26:53.531Z,11.70
2022-09-09T03:29:20.290Z,11.70
2022-09-09T03:31:47.190Z,11.70
2022-09-09T03:34:14.690Z,11.80
2022-09-09T03:36:42.171Z,11.90
2022-09-09T03:39:09.007Z,12.00
2022-09-09T03:41:35.809Z,12.00
2022-09-09T03:44:02.858Z,12.10
2022-09-09T03:46:29.610Z,12.10
2022-09-09T03:48:56.420Z,12.20
2022-09-09T03:51:23.225Z,12.20
2022-09-09T03:53:50.083Z,12.30
2022-09-09T03:56:16.881Z,12.40
2022-09-09T03:58:43.635Z,12.40
2022-09-09T04:01:17.359Z,12.40
2022-09-09T04:03:45.594Z,12.40
2022-09-09T04:06:15.445Z,12.50
2022-09-09T04:08:42.680Z,12.50
2022-09-09T04:11:09.600Z,12.50
2022-09-09T04:13:39.927Z,12.60
2022-09-09T04:16:07.983Z,12.70
2022-09-09T04:18:35.967Z,12.80
2022-09-09T04:21:04.584Z,12.80
2022-09-09T04:23:31.678Z,12.80
2022-09-09T04:26:00.258Z,12.70
2022-09-09T04:28:30.762Z,12.60
2022-09-09T04:30:58.486Z,12.50
2022-09-09T04:33:28.941Z,12.50
2022-09-09T04:35:55.895Z,12.50
2022-09-09T04:38:23.923Z,12.40
2022-09-09T04:40:52.793Z,12.40
2022-09-09T04:43:19.919Z,12.40
2022-09-09T04:45:50.239Z,12.40
2022-09-09T04:48:17.051Z,12.40
2022-09-09T04:50:43.874Z,12.40
2022-09-09T04:53:10.835Z,12.40
2022-09-09T04:55:37.597Z,12.50
2022-09-09T04:58:09.308Z,12.60
2022-09-09T05:00:37.138Z,12.70
2022-09-09T05:03:06.478Z,12.70
2022-09-09T05:05:35.109Z,12.80
2022-09-09T05:08:09.936Z,12.90
2022-09-09T05:10:39.331Z,12.90
2022-09-09T05:13:07.521Z,12.90
2022-09-09T05:15:34.456Z,12.90
2022-09-09T05:18:03.333Z,13.00
2022-09-09T05:20:30.530Z,13.00
2022-09-09T05:22:57.987Z,13.00
2022-09-09T05:25:26.927Z,13.00
2022-09-09T05:27:54.735Z,13.00
2022-09-09T05:30:23.636Z,13.00
2022-09-09T05:32:51.040Z,13.10
2022-09-09T05:35:19.938Z,13.00
2022-09-09T05:37:47.004Z,13.10
2022-09-09T05:40:14.027Z,13.10
2022-09-09T05:42:41.694Z,13.10
2022-09-09T05:45:10.335Z,13.10
2022-09-09T05:47:38.209Z,13.10
2022-09-09T05:50:06.048Z,13.20
2022-09-09T05:52:33.599Z,13.30
2022-09-09T05:55:00.660Z,13.30
2022-09-09T05:57:27.679Z,13.40
2022-09-09T05:59:54.614Z,13.50
2022-09-09T06:02:21.718Z,13.30
2022-09-09T06:04:48.592Z,13.30
2022-09-09T06:07:15.556Z,13.50
2022-09-09T06:09:42.397Z,13.60
2022-09-09T06:12:09.864Z,13.80
2022-09-09T06:14:37.727Z,13.90
2022-09-09T06:17:04.737Z,13.90
2022-09-09T06:19:31.751Z,14.00
2022-09-09T06:21:59.471Z,14.10
2022-09-09T06:24:27.139Z,14.20
2022-09-09T06:26:54.967Z,14.30
2022-09-09T06:29:21.747Z,14.40
2022-09-09T06:31:48.779Z,14.40
2022-09-09T06:34:16.143Z,14.50
2022-09-09T06:36:43.467Z,14.60
2022-09-09T06:39:14.791Z,14.70
2022-09-09T06:41:43.308Z,14.70
2022-09-09T06:44:12.703Z,14.80
2022-09-09T06:46:40.497Z,14.90
2022-09-09T06:49:08.858Z,14.90
2022-09-09T06:51:43.397Z,15.00
2022-09-09T06:54:12.119Z,15.10
2022-09-09T06:56:44.470Z,15.20
2022-09-09T06:59:12.996Z,15.20
2022-09-09T07:01:42.717Z,15.10
2022-09-09T07:04:11.766Z,15.20
2022-09-09T07:06:44.072Z,15.20
2022-09-09T07:09:14.051Z,15.10
2022-09-09T07:11:44.414Z,15.20
2022-09-09T07:14:15.387Z,15.20
2022-09-09T07:16:45.710Z,15.20
2022-09-09T07:19:15.012Z,15.30
2022-09-09T07:21:42.083Z,15.40
2022-09-09T07:24:11.066Z,15.40
2022-09-09T07:26:40.266Z,15.60
2022-09-09T07:29:07.615Z,15.60
2022-09-09T07:31:38.126Z,15.70
2022-09-09T07:34:05.853Z,15.60
2022-09-09T07:36:40.899Z,15.60
2022-09-09T07:39:18.247Z,15.50
2022-09-09T07:41:48.732Z,15.50
2022-09-09T07:44:22.723Z,15.50
2022-09-09T07:46:50.126Z,15.60
2022-09-09T07:49:16.975Z,15.70
2022-09-09T07:51:48.239Z,15.60
2022-09-09T07:54:18.331Z,15.70
2022-09-09T07:56:45.179Z,15.70
2022-09-09T07:59:12.976Z,15.90
2022-09-09T08:01:51.106Z,15.90
2022-09-09T08:04:20.669Z,16.00
2022-09-09T08:06:52.883Z,16.20
2022-09-09T08:09:21.378Z,16.30
2022-09-09T08:11:48.892Z,16.40
2022-09-09T08:14:16.006Z,16.60
2022-09-09T08:16:48.921Z,16.70
2022-09-09T08:19:16.411Z,16.80
2022-09-09T08:21:45.312Z,17.00
2022-09-09T08:24:15.957Z,17.00
2022-09-09T08:26:45.976Z,17.10
2022-09-09T08:29:14.774Z,17.10
2022-09-09T08:31:52.086Z,17.10
2022-09-09T08:34:20.899Z,17.10
2022-09-09T08:36:49.907Z,17.10
2022-09-09T08:39:20.745Z,16.90
2022-09-09T08:41:53.268Z,16.60
2022-09-09T08:45:01.457Z,16.70
2022-09-09T08:48:15.335Z,16.80
2022-09-09T08:50:44.298Z,17.00
2022-09-09T08:53:39.328Z,17.20
2022-09-09T08:56:18.794Z,17.20
2022-09-09T08:58:50.570Z,17.20
2022-09-09T09:01:41.327Z,17.20
2022-09-09T09:04:39.599Z,17.30
2022-09-09T09:07:33.050Z,17.40
2022-09-09T09:10:42.302Z,17.60
2022-09-09T09:13:22.054Z,17.80
2022-09-09T09:15:59.617Z,17.70
2022-09-09T09:18:27.172Z,17.80
2022-09-09T09:21:11.478Z,18.00
2022-09-09T09:23:59.644Z,18.20
2022-09-09T09:26:39.566Z,18.20
2022-09-09T09:29:15.956Z,18.00
2022-09-09T09:31:56.755Z,17.90
2022-09-09T09:34:25.312Z,17.90
2022-09-09T09:37:02.688Z,17.60
2022-09-09T09:42:26.442Z,17.80
2022-09-09T09:44:53.349Z,17.90
2022-09-09T09:47:22.807Z,18.00
2022-09-09T09:50:00.675Z,18.20
2022-09-09T09:52:33.194Z,18.50
2022-09-09T09:55:07.751Z,18.70
2022-09-09T09:57:35.323Z,18.70
2022-09-09T10:00:14.426Z,18.70
2022-09-09T10:02:44.539Z,18.80
2022-09-09T10:05:26.744Z,18.80
2022-09-09T10:08:04.359Z,18.90
2022-09-09T10:11:00.699Z,19.00
2022-09-09T10:13:39.970Z,19.00
2022-09-09T10:16:24.661Z,19.20
2022-09-09T10:19:28.090Z,19.30
2022-09-09T10:22:08.924Z,19.10
2022-09-09T10:24:51.083Z,19.10
2022-09-09T10:27:36.601Z,18.90
2022-09-09T10:30:50.251Z,18.60
2022-09-09T10:33:59.369Z,18.60
2022-09-09T10:36:27.145Z,18.70
2022-09-09T10:39:07.658Z,18.70
2022-09-09T10:41:37.090Z,18.80
2022-09-09T10:44:12.563Z,18.90
2022-09-09T10:47:09.986Z,19.10
2022-09-09T10:50:19.654Z,19.10
2022-09-09T10:53:24.720Z,19.10
2022-09-09T10:56:10.144Z,19.30
2022-09-09T10:59:08.434Z,19.30
2022-09-09T11:02:10.228Z,19.50
2022-09-09T11:04:49.431Z,19.60
2022-09-09T11:07:34.191Z,19.80
2022-09-09T11:10:26.267Z,20.00
2022-09-09T11:12:59.219Z,20.00
2022-09-09T11:15:46.474Z,20.20
2022-09-09T11:18:22.438Z,20.20
2022-09-09T11:20:57.710Z,20.20
2022-09-09T11:23:41.940Z,20.10
2022-09-09T11:26:18.582Z,20.20
2022-09-09T11:29:07.629Z,20.20
2022-09-09T11:32:20.157Z,20.30
2022-09-09T11:35:12.450Z,20.60
2022-09-09T11:38:29.218Z,20.90
2022-09-09T11:41:20.999Z,21.60
2022-09-09T11:43:53.691Z,22.40
2022-09-09T11:46:36.263Z,22.60
2022-09-09T11:49:43.026Z,22.60
2022-09-09T11:52:37.344Z,22.40
2022-09-09T11:55:28.150Z,22.30
2022-09-09T11:58:13.187Z,22.40
2022-09-09T12:00:42.886Z,22.30
2022-09-09T12:03:39.799Z,22.00
2022-09-09T12:06:14.382Z,21.80
2022-09-09T12:08:46.435Z,21.80
2022-09-09T12:11:13.346Z,21.80
2022-09-09T12:13:42.792Z,21.60
2022-09-09T12:16:34.090Z,21.60
2022-09-09T12:19:06.666Z,21.30
2022-09-09T12:21:58.853Z,21.50
2022-09-09T12:24:55.616Z,21.70
2022-09-09T12:27:48.965Z,22.20
2022-09-09T12:30:17.111Z,22.30
2022-09-09T12:32:45.488Z,22.40
2022-09-09T12:35:27.287Z,22.00
2022-09-09T12:38:00.221Z,21.70
2022-09-09T12:40:36.070Z,21.40
2022-09-09T12:43:24.410Z,21.20
2022-09-09T12:46:04.436Z,21.00
2022-09-09T12:48:42.895Z,21.20
2022-09-09T12:51:39.167Z,21.60
2022-09-09T12:54:06.396Z,22.70
2022-09-09T12:56:36.239Z,24.20
2022-09-09T12:59:03.155Z,26.00
2022-09-09T13:01:34.441Z,27.30
2022-09-09T13:04:01.704Z,26.80
2022-09-09T13:06:33.306Z,25.70
2022-09-09T13:09:02.848Z,24.90
2022-09-09T13:11:36.991Z,25.10
2022-09-09T13:14:04.100Z,26.00
2022-09-09T13:16:37.656Z,26.80
2022-09-09T13:19:15.952Z,26.40
2022-09-09T13:21:43.549Z,25.30
2022-09-09T13:24:35.764Z,25.60
2022-09-09T13:27:25.573Z,25.70
2022-09-09T13:29:57.765Z,25.90
2022-09-09T13:32:29.846Z,25.50
2022-09-09T13:35:00.079Z,25.00
2022-09-09T13:37:35.314Z,24.40
2022-09-09T13:40:05.124Z,23.80
2022-09-09T13:42:37.147Z,23.40
2022-09-09T13:45:05.465Z,22.70
2022-09-09T13:47:37.593Z,22.20
2022-09-09T13:50:29.593Z,22.40
2022-09-09T13:52:59.265Z,23.50
2022-09-09T13:55:30.746Z,24.40
2022-09-09T13:58:02.767Z,25.30
2022-09-09T14:00:35.656Z,25.30
2022-09-09T14:03:02.990Z,24.20
2022-09-09T14:05:33.185Z,23.30
2022-09-09T14:08:01.568Z,22.90
2022-09-09T14:10:28.445Z,22.40
2022-09-09T14:12:55.215Z,22.40
2022-09-09T14:15:22.767Z,22.00
2022-09-09T14:17:49.555Z,21.80
2022-09-09T14:20:18.438Z,21.70
2022-09-09T14:22:45.518Z,21.50
2022-09-09T14:25:14.378Z,21.20
2022-09-09T14:27:41.587Z,21.10
2022-09-09T14:30:09.610Z,21.20
2022-09-09T14:32:36.540Z,21.20
2022-09-09T14:35:03.643Z,21.50
2022-09-09T14:37:32.017Z,22.50
2022-09-09T14:39:59.377Z,23.50
2022-09-09T14:42:27.622Z,24.10
2022-09-09T14:44:54.433Z,23.70
2022-09-09T14:47:21.217Z,23.00
2022-09-09T14:49:50.465Z,22.00
2022-09-09T14:52:17.443Z,21.30
2022-09-09T14:54:44.217Z,20.80
2022-09-09T14:57:10.974Z,20.50
2022-09-09T14:59:37.750Z,20.30
2022-09-09T15:02:05.506Z,20.20
2022-09-09T15:04:32.699Z,19.80
2022-09-09T15:06:59.757Z,19.70
2022-09-09T15:09:26.499Z,19.60
2022-09-09T15:11:53.303Z,19.60
2022-09-09T15:14:22.623Z,19.60
2022-09-09T15:16:52.063Z,19.70
2022-09-09T15:19:18.866Z,19.60
2022-09-09T15:21:45.621Z,19.60
2022-09-09T15:24:14.207Z,19.50
2022-09-09T15:26:40.993Z,19.60
2022-09-09T15:29:09.031Z,19.50
2022-09-09T15:31:36.474Z,19.60
2022-09-09T15:34:06.514Z,19.70
2022-09-09T15:36:36.833Z,20.00
2022-09-09T15:39:06.777Z,20.50
2022-09-09T15:41:33.862Z,20.80
2022-09-09T15:44:01.763Z,21.10
2022-09-09T15:46:36.878Z,21.20
2022-09-09T15:49:20.535Z,21.20
2022-09-09T15:51:53.586Z,21.20
2022-09-09T15:54:23.627Z,21.10
2022-09-09T15:56:56.831Z,21.00
2022-09-09T15:59:28.683Z,20.90
2022-09-09T16:01:56.376Z,20.70
2022-09-09T16:04:24.655Z,20.70
2022-09-09T16:07:05.886Z,20.60
2022-09-09T16:09:33.832Z,20.50
2022-09-09T16:12:03.318Z,20.40
2022-09-09T16:14:34.956Z,20.30
2022-09-09T16:17:01.953Z,20.20
2022-09-09T16:19:28.769Z,20.30
2022-09-09T16:21:55.649Z,20.20
2022-09-09T16:24:23.174Z,20.10
2022-09-09T16:26:53.118Z,19.90
2022-09-09T16:29:20.595Z,19.80
2022-09-09T16:31:49.206Z,19.60
2022-09-09T16:34:18.456Z,19.60
2022-09-09T16:36:46.198Z,19.50
2022-09-09T16:39:18.063Z,19.40
2022-09-09T16:41:46.401Z,19.40
2022-09-09T16:44:16.058Z,19.30
2022-09-09T16:46:44.642Z,19.20
2022-09-09T16:49:14.411Z,19.20
2022-09-09T16:51:48.179Z,19.20
2022-09-09T16:54:17.051Z,19.20
2022-09-09T16:56:46.405Z,19.20
2022-09-09T16:59:17.303Z,19.20
2022-09-09T17:01:46.642Z,19.20
2022-09-09T17:04:21.071Z,19.30
2022-09-09T17:06:50.400Z,19.20
2022-09-09T17:09:18.479Z,19.20
2022-09-09T17:11:46.445Z,19.10
2022-09-09T17:14:18.110Z,19.00
2022-09-09T17:16:45.572Z,18.90
2022-09-09T17:19:13.186Z,18.80
2022-09-09T17:22:00.109Z,18.70
2022-09-09T17:24:29.858Z,18.60
2022-09-09T17:26:56.779Z,18.50
2022-09-09T17:29:23.551Z,18.30
2022-09-09T17:31:50.317Z,18.10
2022-09-09T17:34:17.074Z,17.90
2022-09-09T17:36:43.827Z,17.80
2022-09-09T17:39:10.591Z,17.70
2022-09-09T17:41:40.313Z,17.50
2022-09-09T17:44:09.969Z,17.30
2022-09-09T17:46:41.257Z,17.20
2022-09-09T17:49:14.966Z,17.00
2022-09-09T17:51:43.550Z,16.90
2022-09-09T17:54:15.597Z,16.80
2022-09-09T17:56:42.882Z,16.70
2022-09-09T17:59:13.264Z,16.50
2022-09-09T18:01:44.966Z,16.50
2022-09-09T18:04:14.258Z,16.40
2022-09-09T18:06:52.231Z,16.30
2022-09-09T18:09:23.304Z,16.10
2022-09-09T18:11:54.535Z,16.00
2022-09-09T18:14:27.657Z,15.80
2022-09-09T18:16:54.624Z,15.70
2022-09-09T18:19:25.423Z,15.50
2022-09-09T18:21:52.988Z,15.40
2022-09-09T18:24:21.872Z,15.30
2022-09-09T18:26:50.219Z,15.20
2022-09-09T18:29:25.070Z,15.20
2022-09-09T18:31:54.429Z,15.20
2022-09-09T18:34:22.687Z,15.20
2022-09-09T18:36:54.399Z,15.20
2022-09-09T18:39:24.964Z,15.30
2022-09-09T18:41:55.241Z,15.40
2022-09-09T18:44:26.025Z,15.50
2022-09-09T18:46:54.272Z,15.60
2022-09-09T18:49:24.312Z,15.60
2022-09-09T18:51:51.318Z,15.70
2022-09-09T18:54:23.388Z,15.80
2022-09-09T18:56:50.539Z,15.80
2022-09-09T18:59:20.624Z,15.80
2022-09-09T19:01:50.328Z,15.80
2022-09-09T19:04:19.484Z,15.80
2022-09-09T19:06:48.183Z,15.80
2022-09-09T19:09:17.915Z,15.90
2022-09-09T19:11:45.690Z,16.00
2022-09-09T19:14:16.638Z,16.00
2022-09-09T19:16:45.235Z,16.10
2022-09-09T19:19:19.778Z,16.10
2022-09-09T19:21:47.250Z,16.10
2022-09-09T19:24:21.845Z,16.20
2022-09-09T19:26:55.160Z,16.00
2022-09-09T19:29:27.702Z,15.70
2022-09-09T19:34:44.550Z,15.20
2022-09-09T19:37:16.354Z,15.00
2022-09-09T19:39:45.935Z,14.80
2022-09-09T19:42:12.829Z,14.70
2022-09-09T19:44:39.665Z,14.50
2022-09-09T19:47:07.240Z,14.40
2022-09-09T19:49:35.158Z,14.20
2022-09-09T19:52:02.359Z,13.90
2022-09-09T19:54:29.275Z,13.70
2022-09-09T19:56:56.556Z,13.80
2022-09-09T19:59:23.369Z,13.70
2022-09-09T20:01:50.231Z,13.70
2022-09-09T20:04:17.708Z,13.70
2022-09-09T20:06:45.666Z,13.50
2022-09-09T20:09:17.989Z,13.50
2022-09-09T20:11:46.923Z,13.40
2022-09-09T20:14:15.099Z,13.40
2022-09-09T20:16:42.701Z,13.10
2022-09-09T20:19:12.275Z,13.00
2022-09-09T20:21:47.366Z,12.90
2022-09-09T20:24:19.344Z,12.90
2022-09-09T20:26:48.183Z,12.80
2022-09-09T20:29:18.617Z,12.80
2022-09-09T20:31:45.749Z,12.80
2022-09-09T20:34:19.621Z,12.80
2022-09-09T20:36:47.044Z,12.80
2022-09-09T20:39:17.170Z,12.80
2022-09-09T20:41:45.940Z,12.70
2022-09-09T20:44:24.980Z,12.70
2022-09-09T20:47:02.579Z,12.60
2022-09-09T20:49:29.634Z,12.60
2022-09-09T20:51:56.389Z,12.50
2022-09-09T20:54:26.300Z,12.50
2022-09-09T20:56:55.178Z,12.50
2022-09-09T20:59:24.939Z,12.50
2022-09-09T21:01:52.978Z,12.40
2022-09-09T21:04:21.582Z,12.40
2022-09-09T21:06:50.987Z,12.50
2022-09-09T21:09:18.071Z,12.50
2022-09-09T21:11:44.823Z,12.40
2022-09-09T21:14:12.403Z,12.30
2022-09-09T21:16:39.199Z,12.30
2022-09-09T21:19:06.710Z,12.30
2022-09-09T21:21:33.450Z,12.30
2022-09-09T21:24:00.563Z,12.30
2022-09-09T21:26:27.769Z,12.30
2022-09-09T21:28:55.812Z,12.30
2022-09-09T21:31:27.947Z,12.30
2022-09-09T21:33:58.358Z,12.30
2022-09-09T21:36:28.034Z,12.30
2022-09-09T21:38:54.826Z,12.20
2022-09-09T21:41:21.563Z,12.20
2022-09-09T21:43:53.956Z,12.20
2022-09-09T21:46:21.476Z,12.20
2022-09-09T21:48:48.594Z,12.20
2022-09-09T21:51:17.095Z,12.10
2022-09-09T21:53:44.626Z,12.20
2022-09-09T21:56:15.492Z,12.30
2022-09-09T21:58:42.594Z,12.30
2022-09-09T22:01:16.248Z,12.40
2022-09-09T22:03:43.930Z,12.40
2022-09-09T22:06:14.905Z,12.40
2022-09-09T22:08:42.584Z,12.50
2022-09-09T22:11:22.348Z,12.50
2022-09-09T22:13:49.493Z,12.60
2022-09-09T22:16:19.641Z,12.70
2022-09-09T22:18:56.595Z,12.70
2022-09-09T22:21:26.286Z,12.80
2022-09-09T22:23:55.962Z,12.80
2022-09-09T22:26:24.370Z,12.90
2022-09-09T22:28:53.673Z,13.00
2022-09-09T22:31:22.530Z,13.00
2022-09-09T22:33:49.527Z,13.00
2022-09-09T22:36:16.801Z,13.10
2022-09-09T22:38:43.691Z,13.10
2022-09-09T22:41:10.534Z,13.10
2022-09-09T22:43:37.354Z,13.10
2022-09-09T22:46:04.732Z,13.10
2022-09-09T22:48:36.467Z,13.10
2022-09-09T22:51:05.585Z,13.10
2022-09-09T22:53:32.748Z,13.10
2022-09-09T22:56:03.174Z,13.10
2022-09-09T22:58:32.697Z,13.10
2022-09-09T23:01:00.447Z,13.10
2022-09-09T23:03:29.567Z,13.10
2022-09-09T23:06:01.657Z,13.10
2022-09-09T23:08:35.413Z,13.00
2022-09-09T23:11:10.972Z,13.00
2022-09-09T23:13:41.439Z,13.00
2022-09-09T23:16:16.957Z,13.00
2022-09-09T23:18:44.075Z,13.00
2022-09-09T23:21:12.863Z,13.00
2022-09-09T23:23:43.126Z,13.10
2022-09-09T23:26:12.510Z,13.10
2022-09-09T23:28:43.636Z,13.10
2022-09-09T23:31:13.603Z,13.20
2022-09-09T23:33:41.786Z,13.20
2022-09-09T23:36:13.712Z,13.20
2022-09-09T23:38:41.123Z,13.10
2022-09-09T23:41:11.536Z,13.10
2022-09-09T23:43:43.472Z,13.00
2022-09-09T23:46:15.107Z,13.00
2022-09-09T23:48:43.546Z,12.90
2022-09-09T23:51:17.429Z,12.90
2022-09-09T23:53:48.806Z,12.90
2022-09-09T23:56:15.551Z,12.80
2022-09-09T23:58:42.318Z,12.80
